createdAt,value
2023-02-27T00:00:38.777Z,844.70
2023-02-27T00:01:38.755Z,844.71
2023-02-27T00:02:38.806Z,844.73
2023-02-27T00:03:38.861Z,844.74
2023-02-27T00:04:38.720Z,844.71
2023-02-27T00:05:38.714Z,844.73
2023-02-27T00:06:38.700Z,844.75
2023-02-27T00:07:38.728Z,844.84
2023-02-27T00:08:38.701Z,844.80
2023-02-27T00:09:38.693Z,844.83
2023-02-27T00:10:38.659Z,844.84
2023-02-27T00:11:38.658Z,844.89
2023-02-27T00:12:38.646Z,844.87
2023-02-27T00:13:38.632Z,844.89
2023-02-27T00:14:38.631Z,844.83
2023-02-27T00:15:38.620Z,844.85
2023-02-27T00:16:38.614Z,844.83
2023-02-27T00:17:38.584Z,844.83
2023-02-27T00:18:38.581Z,844.83
2023-02-27T00:19:38.587Z,844.87
2023-02-27T00:20:38.559Z,844.85
2023-02-27T00:21:38.571Z,844.88
2023-02-27T00:22:38.535Z,844.84
2023-02-27T00:23:38.546Z,844.89
2023-02-27T00:24:38.527Z,844.83
2023-02-27T00:25:38.503Z,844.88
2023-02-27T00:26:38.495Z,844.86
2023-02-27T00:27:38.506Z,844.84
2023-02-27T00:28:38.472Z,844.85
2023-02-27T00:29:38.470Z,844.87
2023-02-27T00:30:38.487Z,844.89
2023-02-27T00:31:38.505Z,844.87
2023-02-27T00:32:38.495Z,844.89
2023-02-27T00:33:38.615Z,844.89
2023-02-27T00:34:38.409Z,844.85
2023-02-27T00:35:38.532Z,844.88
2023-02-27T00:36:38.399Z,844.86
2023-02-27T00:37:38.403Z,844.86
2023-02-27T00:38:38.523Z,844.82
2023-02-27T00:39:39.045Z,844.83
2023-02-27T00:40:38.407Z,844.80
2023-02-27T00:41:38.451Z,844.81
2023-02-27T00:42:38.356Z,844.78
2023-02-27T00:43:38.407Z,844.83
2023-02-27T00:44:38.366Z,844.83
2023-02-27T00:45:38.383Z,844.78
2023-02-27T00:46:38.347Z,844.83
2023-02-27T00:47:38.534Z,844.82
2023-02-27T00:48:38.376Z,844.81
2023-02-27T00:49:38.249Z,844.84
2023-02-27T00:50:38.287Z,844.84
2023-02-27T00:51:38.225Z,844.83
2023-02-27T00:52:38.228Z,844.85
2023-02-27T00:53:38.217Z,844.87
2023-02-27T00:54:38.199Z,844.84
2023-02-27T00:55:38.203Z,844.84
2023-02-27T00:56:38.177Z,844.83
2023-02-27T00:57:38.192Z,844.88
2023-02-27T00:58:38.171Z,844.82
2023-02-27T00:59:38.157Z,844.85
2023-02-27T01:00:38.242Z,844.83
2023-02-27T01:01:38.135Z,844.80
2023-02-27T01:02:38.255Z,844.86
2023-02-27T01:03:38.123Z,844.82
2023-02-27T01:04:38.113Z,844.85
2023-02-27T01:05:38.089Z,844.84
2023-02-27T01:06:38.092Z,844.85
2023-02-27T01:07:38.063Z,844.87
2023-02-27T01:08:38.062Z,844.86
2023-02-27T01:09:38.061Z,844.86
2023-02-27T01:10:38.044Z,844.88
2023-02-27T01:11:38.045Z,844.88
2023-02-27T01:12:38.024Z,844.91
2023-02-27T01:13:38.015Z,844.90
2023-02-27T01:14:37.998Z,844.95
2023-02-27T01:15:38.013Z,844.91
2023-02-27T01:16:38.047Z,844.89
2023-02-27T01:17:37.962Z,844.86
2023-02-27T01:18:37.988Z,844.89
2023-02-27T01:19:37.950Z,844.92
2023-02-27T01:20:37.938Z,844.91
2023-02-27T01:21:37.938Z,844.89
2023-02-27T01:22:37.915Z,844.92
2023-02-27T01:23:37.908Z,844.92
2023-02-27T01:24:37.910Z,844.93
2023-02-27T01:25:37.879Z,844.93
2023-02-27T01:26:37.873Z,844.94
2023-02-27T01:27:37.896Z,844.91
2023-02-27T01:28:37.855Z,844.90
2023-02-27T01:29:37.850Z,844.91
2023-02-27T01:30:37.895Z,844.95
2023-02-27T01:31:37.904Z,844.92
2023-02-27T01:32:37.893Z,844.90
2023-02-27T01:33:37.831Z,844.91
2023-02-27T01:34:37.795Z,844.92
2023-02-27T01:35:37.840Z,844.93
2023-02-27T01:36:37.770Z,844.94
2023-02-27T01:37:37.770Z,844.88
2023-02-27T01:38:37.750Z,844.94
2023-02-27T01:39:37.743Z,844.98
2023-02-27T01:40:37.738Z,844.95
2023-02-27T01:41:37.715Z,844.92
2023-02-27T01:42:37.716Z,844.95
2023-02-27T01:43:37.725Z,845.01
2023-02-27T01:44:37.688Z,844.96
2023-02-27T01:45:37.719Z,845.00
2023-02-27T01:46:37.667Z,844.88
2023-02-27T01:47:37.671Z,844.96
2023-02-27T01:48:37.647Z,844.96
2023-02-27T01:49:37.646Z,844.97
2023-02-27T01:50:37.647Z,845.02
2023-02-27T01:51:37.618Z,845.01
2023-02-27T01:52:37.603Z,845.01
2023-02-27T01:53:37.598Z,844.99
2023-02-27T01:54:37.582Z,844.94
2023-02-27T01:55:37.576Z,844.99
2023-02-27T01:56:37.565Z,845.04
2023-02-27T01:57:37.558Z,845.01
2023-02-27T01:58:37.543Z,845.06
2023-02-27T01:59:37.566Z,845.07
2023-02-27T02:00:37.519Z,845.08
2023-02-27T02:01:37.546Z,845.09
2023-02-27T02:02:37.603Z,845.06
2023-02-27T02:03:37.500Z,845.10
2023-02-27T02:04:37.478Z,845.09
2023-02-27T02:05:37.473Z,845.16
2023-02-27T02:06:37.455Z,845.09
2023-02-27T02:07:37.442Z,845.15
2023-02-27T02:08:37.440Z,845.15
2023-02-27T02:09:37.450Z,845.11
2023-02-27T02:10:37.417Z,845.14
2023-02-27T02:11:37.403Z,845.16
2023-02-27T02:12:37.398Z,845.13
2023-02-27T02:13:37.386Z,845.12
2023-02-27T02:14:37.396Z,845.15
2023-02-27T02:15:37.393Z,845.17
2023-02-27T02:16:37.382Z,845.16
2023-02-27T02:17:37.338Z,845.18
2023-02-27T02:18:37.332Z,845.21
2023-02-27T02:19:37.330Z,845.17
2023-02-27T02:20:37.330Z,845.19
2023-02-27T02:21:37.313Z,845.19
2023-02-27T02:22:37.292Z,845.21
2023-02-27T02:23:37.277Z,845.20
2023-02-27T02:24:37.269Z,845.19
2023-02-27T02:25:37.273Z,845.22
2023-02-27T02:26:37.252Z,845.21
2023-02-27T02:27:37.244Z,845.18
2023-02-27T02:28:37.228Z,845.21
2023-02-27T02:29:37.213Z,845.25
2023-02-27T02:30:37.391Z,845.23
2023-02-27T02:31:37.269Z,845.23
2023-02-27T02:32:37.184Z,845.21
2023-02-27T02:33:37.185Z,845.27
2023-02-27T02:34:37.175Z,845.24
2023-02-27T02:35:37.150Z,845.22
2023-02-27T02:36:37.164Z,845.17
2023-02-27T02:37:37.129Z,845.24
2023-02-27T02:38:37.123Z,845.22
2023-02-27T02:39:37.122Z,845.22
2023-02-27T02:40:37.103Z,845.24
2023-02-27T02:41:37.099Z,845.25
2023-02-27T02:42:37.085Z,845.24
2023-02-27T02:43:37.066Z,845.20
2023-02-27T02:44:37.062Z,845.24
2023-02-27T02:45:37.057Z,845.22
2023-02-27T02:46:37.040Z,845.27
2023-02-27T02:47:37.056Z,845.23
2023-02-27T02:48:37.029Z,845.26
2023-02-27T02:49:37.020Z,845.24
2023-02-27T02:50:36.997Z,845.23
2023-02-27T02:51:36.995Z,845.26
2023-02-27T02:52:36.976Z,845.26
2023-02-27T02:53:37.708Z,845.28
2023-02-27T02:54:36.963Z,845.27
2023-02-27T02:55:36.955Z,845.26
2023-02-27T02:56:36.936Z,845.28
2023-02-27T02:57:36.947Z,845.23
2023-02-27T02:58:36.920Z,845.27
2023-02-27T02:59:36.901Z,845.27
2023-02-27T03:00:36.903Z,845.33
2023-02-27T03:01:36.926Z,845.25
2023-02-27T03:02:36.877Z,845.26
2023-02-27T03:03:36.892Z,845.24
2023-02-27T03:04:36.908Z,845.27
2023-02-27T03:05:36.842Z,845.27
2023-02-27T03:06:36.835Z,845.20
2023-02-27T03:07:37.013Z,845.26
2023-02-27T03:08:36.816Z,845.24
2023-02-27T03:09:36.817Z,845.24
2023-02-27T03:10:36.800Z,845.25
2023-02-27T03:11:36.780Z,845.25
2023-02-27T03:12:36.772Z,845.26
2023-02-27T03:13:36.768Z,845.27
2023-02-27T03:14:36.752Z,845.21
2023-02-27T03:15:36.769Z,845.27
2023-02-27T03:16:36.733Z,845.28
2023-02-27T03:17:36.731Z,845.31
2023-02-27T03:18:36.710Z,845.31
2023-02-27T03:19:36.716Z,845.36
2023-02-27T03:20:36.703Z,845.37
2023-02-27T03:21:36.691Z,845.31
2023-02-27T03:22:36.666Z,845.32
2023-02-27T03:23:36.653Z,845.30
2023-02-27T03:24:36.647Z,845.33
2023-02-27T03:25:36.642Z,845.34
2023-02-27T03:26:36.629Z,845.39
2023-02-27T03:27:36.630Z,845.30
2023-02-27T03:28:36.640Z,845.34
2023-02-27T03:29:36.599Z,845.38
2023-02-27T03:30:36.627Z,845.39
2023-02-27T03:31:36.720Z,845.40
2023-02-27T03:32:36.559Z,845.38
2023-02-27T03:33:36.576Z,845.43
2023-02-27T03:34:36.540Z,845.39
2023-02-27T03:35:36.558Z,845.38
2023-02-27T03:36:36.516Z,845.41
2023-02-27T03:37:36.504Z,845.35
2023-02-27T03:38:36.498Z,845.41
2023-02-27T03:39:36.514Z,845.42
2023-02-27T03:40:36.476Z,845.44
2023-02-27T03:41:36.464Z,845.43
2023-02-27T03:42:36.453Z,845.39
2023-02-27T03:43:36.440Z,845.39
2023-02-27T03:44:36.446Z,845.41
2023-02-27T03:45:36.431Z,845.42
2023-02-27T03:46:36.445Z,845.44
2023-02-27T03:47:36.398Z,845.48
2023-02-27T03:48:36.389Z,845.48
2023-02-27T03:49:36.388Z,845.46
2023-02-27T03:50:36.371Z,845.50
2023-02-27T03:51:36.381Z,845.51
2023-02-27T03:52:36.349Z,845.46
2023-02-27T03:53:36.345Z,845.49
2023-02-27T03:54:36.339Z,845.49
2023-02-27T03:55:36.332Z,845.53
2023-02-27T03:56:36.307Z,845.54
2023-02-27T03:57:36.327Z,845.53
2023-02-27T03:58:36.300Z,845.55
2023-02-27T03:59:36.274Z,845.58
2023-02-27T04:00:36.265Z,845.58
2023-02-27T04:01:36.276Z,845.58
2023-02-27T04:02:36.287Z,845.59
2023-02-27T04:03:36.246Z,845.54
2023-02-27T04:04:36.252Z,845.57
2023-02-27T04:05:36.212Z,845.54
2023-02-27T04:06:36.204Z,845.59
2023-02-27T04:07:36.220Z,845.54
2023-02-27T04:08:36.193Z,845.58
2023-02-27T04:09:36.199Z,845.60
2023-02-27T04:10:36.185Z,845.58
2023-02-27T04:11:36.148Z,845.61
2023-02-27T04:12:36.155Z,845.61
2023-02-27T04:13:36.130Z,845.58
2023-02-27T04:14:36.139Z,845.59
2023-02-27T04:15:36.138Z,845.64
2023-02-27T04:16:36.111Z,845.62
2023-02-27T04:17:36.088Z,845.58
2023-02-27T04:18:36.092Z,845.59
2023-02-27T04:19:36.067Z,845.60
2023-02-27T04:20:36.068Z,845.61
2023-02-27T04:21:36.056Z,845.64
2023-02-27T04:22:36.059Z,845.65
2023-02-27T04:23:36.049Z,845.66
2023-02-27T04:24:36.017Z,845.63
2023-02-27T04:25:36.085Z,845.66
2023-02-27T04:26:35.996Z,845.63
2023-02-27T04:27:36.005Z,845.62
2023-02-27T04:28:35.975Z,845.61
2023-02-27T04:29:35.975Z,845.63
2023-02-27T04:30:35.957Z,845.63
2023-02-27T04:31:36.113Z,845.60
2023-02-27T04:32:36.068Z,845.65
2023-02-27T04:33:35.942Z,845.68
2023-02-27T04:34:35.926Z,845.65
2023-02-27T04:35:35.909Z,845.64
2023-02-27T04:36:35.894Z,845.69
2023-02-27T04:37:35.908Z,845.64
2023-02-27T04:38:35.874Z,845.66
2023-02-27T04:39:35.894Z,845.64
2023-02-27T04:40:35.852Z,845.63
2023-02-27T04:41:35.852Z,845.63
2023-02-27T04:42:35.836Z,845.63
2023-02-27T04:43:35.839Z,845.68
2023-02-27T04:44:35.810Z,845.67
2023-02-27T04:45:35.836Z,845.68
2023-02-27T04:46:35.792Z,845.70
2023-02-27T04:47:35.785Z,845.69
2023-02-27T04:48:35.781Z,845.68
2023-02-27T04:49:35.783Z,845.69
2023-02-27T04:50:35.752Z,845.72
2023-02-27T04:51:35.763Z,845.67
2023-02-27T04:52:35.730Z,845.71
2023-02-27T04:53:35.721Z,845.75
2023-02-27T04:54:35.721Z,845.71
2023-02-27T04:55:35.726Z,845.74
2023-02-27T04:56:35.693Z,845.70
2023-02-27T04:57:35.692Z,845.77
2023-02-27T04:58:35.668Z,845.74
2023-02-27T04:59:35.660Z,845.78
2023-02-27T05:00:35.658Z,845.77
2023-02-27T05:01:35.659Z,845.75
2023-02-27T05:02:35.772Z,845.79
2023-02-27T05:03:35.635Z,845.80
2023-02-27T05:04:35.617Z,845.82
2023-02-27T05:05:35.595Z,845.81
2023-02-27T05:06:35.584Z,845.80
2023-02-27T05:07:35.577Z,845.82
2023-02-27T05:08:35.562Z,845.80
2023-02-27T05:09:35.581Z,845.82
2023-02-27T05:10:35.540Z,845.79
2023-02-27T05:11:35.560Z,845.83
2023-02-27T05:12:35.517Z,845.80
2023-02-27T05:13:35.511Z,845.82
2023-02-27T05:14:35.510Z,845.80
2023-02-27T05:15:35.506Z,845.81
2023-02-27T05:16:35.500Z,845.85
2023-02-27T05:17:35.487Z,845.85
2023-02-27T05:18:35.494Z,845.85
2023-02-27T05:19:35.458Z,845.88
2023-02-27T05:20:35.448Z,845.82
2023-02-27T05:21:35.449Z,845.85
2023-02-27T05:22:35.422Z,845.85
2023-02-27T05:23:35.406Z,845.87
2023-02-27T05:24:35.416Z,845.87
2023-02-27T05:25:35.405Z,845.85
2023-02-27T05:26:35.372Z,845.86
2023-02-27T05:27:35.393Z,845.84
2023-02-27T05:28:35.352Z,845.83
2023-02-27T05:29:35.370Z,845.84
2023-02-27T05:30:35.332Z,845.89
2023-02-27T05:31:35.381Z,845.86
2023-02-27T05:32:35.345Z,845.84
2023-02-27T05:33:35.318Z,845.80
2023-02-27T05:34:35.320Z,845.80
2023-02-27T05:35:35.346Z,845.79
2023-02-27T05:36:35.267Z,845.85
2023-02-27T05:37:35.261Z,845.86
2023-02-27T05:38:35.245Z,845.85
2023-02-27T05:39:35.249Z,845.91
2023-02-27T05:40:35.236Z,845.82
2023-02-27T05:41:35.251Z,845.86
2023-02-27T05:42:35.205Z,845.89
2023-02-27T05:43:35.226Z,845.89
2023-02-27T05:44:35.186Z,845.88
2023-02-27T05:45:35.205Z,845.86
2023-02-27T05:46:35.177Z,845.86
2023-02-27T05:47:35.156Z,845.82
2023-02-27T05:48:35.138Z,845.84
2023-02-27T05:49:35.136Z,845.91
2023-02-27T05:50:35.124Z,845.80
2023-02-27T05:51:35.124Z,845.79
2023-02-27T05:52:35.106Z,845.81
2023-02-27T05:53:35.094Z,845.84
2023-02-27T05:54:35.088Z,845.85
2023-02-27T05:55:35.096Z,845.82
2023-02-27T05:56:35.057Z,845.84
2023-02-27T05:57:35.113Z,845.87
2023-02-27T05:58:35.055Z,845.89
2023-02-27T05:59:35.127Z,845.91
2023-02-27T06:00:35.022Z,845.85
2023-02-27T06:01:35.049Z,845.89
2023-02-27T06:02:35.073Z,845.92
2023-02-27T06:03:35.020Z,845.84
2023-02-27T06:04:35.094Z,845.92
2023-02-27T06:05:34.991Z,845.88
2023-02-27T06:06:34.955Z,845.86
2023-02-27T06:07:34.975Z,845.88
2023-02-27T06:08:34.935Z,845.87
2023-02-27T06:09:34.965Z,845.86
2023-02-27T06:10:34.940Z,845.85
2023-02-27T06:11:34.908Z,845.87
2023-02-27T06:12:34.897Z,845.84
2023-02-27T06:13:34.894Z,845.85
2023-02-27T06:14:34.886Z,845.82
2023-02-27T06:15:34.886Z,845.84
2023-02-27T06:16:34.884Z,845.84
2023-02-27T06:17:34.886Z,845.87
2023-02-27T06:18:34.845Z,845.91
2023-02-27T06:19:34.834Z,845.86
2023-02-27T06:20:34.811Z,845.92
2023-02-27T06:21:34.807Z,845.87
2023-02-27T06:22:34.806Z,845.89
2023-02-27T06:23:34.800Z,845.90
2023-02-27T06:24:34.794Z,845.86
2023-02-27T06:25:34.769Z,845.89
2023-02-27T06:26:34.750Z,845.91
2023-02-27T06:27:34.742Z,845.91
2023-02-27T06:28:34.750Z,845.93
2023-02-27T06:29:34.721Z,845.94
2023-02-27T06:30:34.743Z,845.99
2023-02-27T06:31:34.718Z,845.97
2023-02-27T06:32:34.685Z,846.00
2023-02-27T06:33:34.697Z,846.00
2023-02-27T06:34:34.677Z,845.97
2023-02-27T06:35:34.757Z,845.99
2023-02-27T06:36:34.653Z,846.01
2023-02-27T06:37:34.635Z,845.99
2023-02-27T06:38:34.622Z,846.03
2023-02-27T06:39:34.631Z,846.11
2023-02-27T06:40:34.615Z,846.09
2023-02-27T06:41:34.603Z,846.11
2023-02-27T06:42:34.583Z,846.13
2023-02-27T06:43:34.586Z,846.11
2023-02-27T06:44:34.574Z,846.16
2023-02-27T06:45:34.559Z,846.11
2023-02-27T06:46:34.633Z,846.12
2023-02-27T06:47:34.591Z,846.13
2023-02-27T06:48:34.513Z,846.12
2023-02-27T06:49:34.508Z,846.13
2023-02-27T06:50:34.498Z,846.13
2023-02-27T06:51:34.498Z,846.16
2023-02-27T06:52:34.496Z,846.11
2023-02-27T06:53:34.465Z,846.14
2023-02-27T06:54:34.451Z,846.14
2023-02-27T06:55:34.445Z,846.16
2023-02-27T06:56:34.448Z,846.13
2023-02-27T06:57:34.425Z,846.20
2023-02-27T06:58:34.438Z,846.17
2023-02-27T06:59:34.404Z,846.21
2023-02-27T07:00:34.409Z,846.15
2023-02-27T07:02:52.772Z,846.16
2023-02-27T07:03:52.657Z,846.17
2023-02-27T07:05:00.836Z,846.14
2023-02-27T07:05:53.665Z,846.17
2023-02-27T07:07:34.500Z,846.20
2023-02-27T07:07:53.610Z,846.18
2023-02-27T07:09:01.312Z,846.19
2023-02-27T07:09:53.770Z,846.22
2023-02-27T07:10:52.593Z,846.22
2023-02-27T07:11:52.575Z,846.20
2023-02-27T07:12:52.568Z,846.16
2023-02-27T07:13:52.636Z,846.15
2023-02-27T07:14:52.569Z,846.16
2023-02-27T07:15:52.586Z,846.19
2023-02-27T07:16:52.529Z,846.21
2023-02-27T07:17:52.514Z,846.16
2023-02-27T07:18:52.524Z,846.13
2023-02-27T07:19:52.526Z,846.10
2023-02-27T07:20:52.494Z,846.14
2023-02-27T07:21:52.465Z,846.13
2023-02-27T07:22:52.476Z,846.14
2023-02-27T07:23:52.443Z,846.15
2023-02-27T07:24:52.441Z,846.11
2023-02-27T07:25:52.438Z,846.17
2023-02-27T07:26:52.425Z,846.11
2023-02-27T07:27:52.449Z,846.12
2023-02-27T07:28:52.395Z,846.13
2023-02-27T07:29:52.393Z,846.15
2023-02-27T07:30:52.404Z,846.16
2023-02-27T07:31:52.398Z,846.13
2023-02-27T07:32:52.355Z,846.18
2023-02-27T07:33:52.360Z,846.21
2023-02-27T07:34:52.356Z,846.17
2023-02-27T07:35:52.339Z,846.17
2023-02-27T07:36:52.355Z,846.11
2023-02-27T07:37:52.312Z,846.13
2023-02-27T07:38:52.297Z,846.13
2023-02-27T07:39:52.294Z,846.14
2023-02-27T07:40:52.291Z,846.16
2023-02-27T07:41:52.267Z,846.13
2023-02-27T07:42:53.383Z,846.13
2023-02-27T07:43:52.246Z,846.14
2023-02-27T07:44:52.321Z,846.18
2023-02-27T07:45:52.234Z,846.14
2023-02-27T07:46:52.342Z,846.16
2023-02-27T07:47:52.204Z,846.15
2023-02-27T07:48:52.190Z,846.14
2023-02-27T07:49:52.197Z,846.13
2023-02-27T07:50:52.208Z,846.14
2023-02-27T07:51:52.185Z,846.10
2023-02-27T07:52:52.155Z,846.15
2023-02-27T07:53:52.137Z,846.15
2023-02-27T07:54:52.131Z,846.17
2023-02-27T07:55:52.117Z,846.12
2023-02-27T07:56:52.111Z,846.16
2023-02-27T07:57:52.143Z,846.16
2023-02-27T07:58:52.098Z,846.16
2023-02-27T07:59:52.089Z,846.17
2023-02-27T08:00:52.082Z,846.18
2023-02-27T08:01:52.078Z,846.18
2023-02-27T08:02:52.074Z,846.17
2023-02-27T08:03:52.069Z,846.19
2023-02-27T08:04:52.147Z,846.14
2023-02-27T08:05:52.011Z,846.14
2023-02-27T08:06:52.043Z,846.10
2023-02-27T08:07:51.992Z,846.12
2023-02-27T08:08:51.983Z,846.15
2023-02-27T08:09:51.988Z,846.20
2023-02-27T08:10:51.970Z,846.19
2023-02-27T08:11:51.961Z,846.18
2023-02-27T08:12:51.944Z,846.14
2023-02-27T08:14:01.315Z,846.19
2023-02-27T08:14:53.037Z,846.16
2023-02-27T08:15:51.955Z,846.14
2023-02-27T08:16:51.901Z,846.17
2023-02-27T08:17:51.899Z,846.17
2023-02-27T08:18:51.885Z,846.20
2023-02-27T08:19:51.868Z,846.18
2023-02-27T08:20:51.873Z,846.21
2023-02-27T08:21:51.869Z,846.16
2023-02-27T08:22:51.884Z,846.17
2023-02-27T08:23:51.841Z,846.24
2023-02-27T08:24:51.814Z,846.19
2023-02-27T08:25:51.809Z,846.20
2023-02-27T08:26:51.806Z,846.17
2023-02-27T08:27:51.778Z,846.23
2023-02-27T08:28:51.771Z,846.25
2023-02-27T08:29:51.763Z,846.26
2023-02-27T08:30:51.755Z,846.28
2023-02-27T08:31:51.850Z,846.25
2023-02-27T08:32:51.727Z,846.25
2023-02-27T08:34:01.027Z,846.28
2023-02-27T08:34:52.712Z,846.32
2023-02-27T08:37:09.185Z,846.28
2023-02-27T08:38:09.006Z,846.26
2023-02-27T08:39:09.009Z,846.23
2023-02-27T08:40:09.591Z,846.24
2023-02-27T08:41:08.952Z,846.22
2023-02-27T08:42:08.993Z,846.29
2023-02-27T08:43:08.939Z,846.22
2023-02-27T08:44:08.913Z,846.30
2023-02-27T08:45:09.595Z,846.31
2023-02-27T08:46:08.986Z,846.28
2023-02-27T08:47:09.593Z,846.29
2023-02-27T08:48:08.869Z,846.23
2023-02-27T08:49:08.865Z,846.24
2023-02-27T08:50:08.877Z,846.27
2023-02-27T08:51:08.924Z,846.29
2023-02-27T08:52:08.826Z,846.27
2023-02-27T08:53:08.858Z,846.35
2023-02-27T08:54:08.823Z,846.37
2023-02-27T08:55:08.801Z,846.33
2023-02-27T08:56:08.800Z,846.37
2023-02-27T08:57:08.773Z,846.35
2023-02-27T08:58:08.782Z,846.41
2023-02-27T08:59:08.774Z,846.33
2023-02-27T09:00:08.776Z,846.30
2023-02-27T09:01:08.755Z,846.32
2023-02-27T09:02:08.740Z,846.30
2023-02-27T09:03:08.861Z,846.37
2023-02-27T09:04:08.727Z,846.32
2023-02-27T09:05:08.740Z,846.34
2023-02-27T09:06:08.684Z,846.34
2023-02-27T09:07:08.701Z,846.31
2023-02-27T09:08:08.683Z,846.34
2023-02-27T09:09:08.653Z,846.34
2023-02-27T09:10:08.672Z,846.34
2023-02-27T09:11:08.654Z,846.39
2023-02-27T09:12:08.624Z,846.33
2023-02-27T09:13:08.643Z,846.38
2023-02-27T09:14:08.601Z,846.36
2023-02-27T09:15:08.595Z,846.39
2023-02-27T09:16:08.614Z,846.35
2023-02-27T09:17:08.586Z,846.37
2023-02-27T09:18:08.551Z,846.38
2023-02-27T09:19:08.549Z,846.37
2023-02-27T09:20:08.537Z,846.38
2023-02-27T09:21:08.525Z,846.37
2023-02-27T09:22:08.541Z,846.38
2023-02-27T09:23:08.518Z,846.36
2023-02-27T09:24:19.295Z,846.41
2023-02-27T09:25:09.505Z,846.39
2023-02-27T09:26:08.492Z,846.39
2023-02-27T09:27:08.474Z,846.38
2023-02-27T09:28:08.462Z,846.42
2023-02-27T09:29:08.451Z,846.42
2023-02-27T09:30:08.430Z,846.41
2023-02-27T09:31:08.443Z,846.42
2023-02-27T09:32:08.555Z,846.44
2023-02-27T09:33:08.405Z,846.45
2023-02-27T09:34:08.384Z,846.43
2023-02-27T09:35:08.384Z,846.48
2023-02-27T09:36:08.466Z,846.40
2023-02-27T09:37:08.365Z,846.42
2023-02-27T09:38:08.395Z,846.43
2023-02-27T09:39:08.350Z,846.48
2023-02-27T09:40:08.340Z,846.43
2023-02-27T09:41:08.323Z,846.44
2023-02-27T09:42:08.325Z,846.48
2023-02-27T09:43:08.308Z,846.41
2023-02-27T09:44:08.316Z,846.43
2023-02-27T09:45:08.275Z,846.42
2023-02-27T09:46:08.323Z,846.43
2023-02-27T09:47:08.248Z,846.43
2023-02-27T09:48:08.237Z,846.50
2023-02-27T09:49:08.237Z,846.42
2023-02-27T09:50:08.235Z,846.45
2023-02-27T09:51:08.213Z,846.46
2023-02-27T09:52:08.196Z,846.47
2023-02-27T09:53:08.194Z,846.47
2023-02-27T09:54:08.170Z,846.48
2023-02-27T09:55:08.164Z,846.47
2023-02-27T09:56:08.177Z,846.54
2023-02-27T09:57:08.143Z,846.51
2023-02-27T09:58:08.190Z,846.54
2023-02-27T09:59:08.149Z,846.58
2023-02-27T10:00:08.116Z,846.57
2023-02-27T10:01:08.110Z,846.57
2023-02-27T10:02:08.129Z,846.57
2023-02-27T10:03:08.151Z,846.57
2023-02-27T10:04:10.791Z,846.56
2023-02-27T10:05:08.070Z,846.59
2023-02-27T10:06:08.058Z,846.61
2023-02-27T10:07:08.057Z,846.61
2023-02-27T10:08:08.032Z,846.60
2023-02-27T10:09:08.018Z,846.64
2023-02-27T10:10:08.014Z,846.61
2023-02-27T10:11:08.019Z,846.64
2023-02-27T10:12:07.996Z,846.67
2023-02-27T10:13:07.974Z,846.62
2023-02-27T10:14:08.035Z,846.63
2023-02-27T10:15:07.957Z,846.74
2023-02-27T10:16:07.947Z,846.71
2023-02-27T10:17:08.043Z,846.68
2023-02-27T10:18:23.932Z,846.68
2023-02-27T10:19:08.914Z,846.69
2023-02-27T10:20:07.900Z,846.72
2023-02-27T10:21:07.910Z,846.71
2023-02-27T10:22:07.913Z,846.70
2023-02-27T10:23:07.884Z,846.74
2023-02-27T10:24:08.022Z,846.72
2023-02-27T10:25:21.289Z,846.71
2023-02-27T10:26:08.837Z,846.74
2023-02-27T10:27:07.832Z,846.71
2023-02-27T10:28:07.825Z,846.67
2023-02-27T10:29:07.813Z,846.65
2023-02-27T10:30:09.628Z,846.67
2023-02-27T10:31:07.881Z,846.68
2023-02-27T10:32:07.831Z,846.73
2023-02-27T10:33:07.769Z,846.68
2023-02-27T10:34:07.765Z,846.70
2023-02-27T10:35:07.748Z,846.75
2023-02-27T10:36:07.775Z,846.75
2023-02-27T10:37:07.724Z,846.76
2023-02-27T10:38:07.793Z,846.80
2023-02-27T10:41:06.377Z,846.81
2023-02-27T10:42:06.359Z,846.81
2023-02-27T10:43:06.613Z,846.81
2023-02-27T10:44:06.390Z,846.79
2023-02-27T10:45:06.321Z,846.78
2023-02-27T10:46:06.450Z,846.79
2023-02-27T10:47:06.299Z,846.83
2023-02-27T10:48:06.333Z,846.79
2023-02-27T10:49:06.279Z,846.78
2023-02-27T10:50:06.267Z,846.85
2023-02-27T10:51:06.743Z,846.85
2023-02-27T10:52:06.255Z,846.82
2023-02-27T10:53:06.242Z,846.84
2023-02-27T10:54:06.239Z,846.78
2023-02-27T10:55:06.218Z,846.79
2023-02-27T10:56:15.764Z,846.79
2023-02-27T10:57:06.197Z,846.75
2023-02-27T10:58:06.180Z,846.80
2023-02-27T10:59:06.190Z,846.80
2023-02-27T11:00:06.695Z,846.79
2023-02-27T11:01:06.163Z,846.77
2023-02-27T11:02:06.287Z,846.75
2023-02-27T11:03:06.250Z,846.78
2023-02-27T11:04:06.124Z,846.76
2023-02-27T11:05:06.108Z,846.77
2023-02-27T11:06:06.096Z,846.79
2023-02-27T11:07:06.092Z,846.74
2023-02-27T11:08:06.074Z,846.76
2023-02-27T11:09:06.077Z,846.79
2023-02-27T11:10:06.054Z,846.79
2023-02-27T11:11:06.038Z,846.76
2023-02-27T11:12:06.023Z,846.76
2023-02-27T11:13:06.176Z,846.77
2023-02-27T11:15:17.027Z,846.75
2023-02-27T11:16:17.092Z,846.74
2023-02-27T11:17:17.023Z,846.74
2023-02-27T11:18:17.009Z,846.80
2023-02-27T11:19:16.995Z,846.79
2023-02-27T11:20:17.019Z,846.74
2023-02-27T11:21:16.970Z,846.75
2023-02-27T11:22:16.972Z,846.77
2023-02-27T11:23:17.044Z,846.76
2023-02-27T11:24:25.069Z,846.73
2023-02-27T11:25:16.921Z,846.75
2023-02-27T11:26:16.928Z,846.76
2023-02-27T11:27:16.900Z,846.74
2023-02-27T11:28:16.890Z,846.74
2023-02-27T11:29:16.916Z,846.71
2023-02-27T11:30:17.488Z,846.74
2023-02-27T11:31:19.020Z,846.77
2023-02-27T11:32:16.853Z,846.75
2023-02-27T11:33:16.863Z,846.73
2023-02-27T11:34:23.502Z,846.74
2023-02-27T11:35:16.830Z,846.77
2023-02-27T11:36:17.884Z,846.79
2023-02-27T11:37:16.797Z,846.80
2023-02-27T11:38:16.804Z,846.76
2023-02-27T11:39:16.807Z,846.75
2023-02-27T11:40:16.761Z,846.76
2023-02-27T11:41:16.764Z,846.76
2023-02-27T11:42:17.459Z,846.75
2023-02-27T11:43:16.759Z,846.74
2023-02-27T11:44:16.716Z,846.78
2023-02-27T11:45:16.760Z,846.77
2023-02-27T11:46:45.136Z,846.69
2023-02-27T11:47:17.750Z,846.69
2023-02-27T11:48:16.681Z,846.68
2023-02-27T11:49:16.689Z,846.69
2023-02-27T11:50:16.654Z,846.67
2023-02-27T11:51:16.672Z,846.69
2023-02-27T11:52:17.671Z,846.67
2023-02-27T11:53:16.637Z,846.64
2023-02-27T11:54:16.629Z,846.69
2023-02-27T11:55:16.641Z,846.66
2023-02-27T11:56:16.601Z,846.66
2023-02-27T11:57:16.580Z,846.64
2023-02-27T11:58:16.590Z,846.64
2023-02-27T11:59:16.563Z,846.63
2023-02-27T12:00:16.553Z,846.63
2023-02-27T12:01:16.534Z,846.62
2023-02-27T12:02:16.543Z,846.59
2023-02-27T12:03:16.602Z,846.63
2023-02-27T12:04:16.664Z,846.58
2023-02-27T12:05:16.529Z,846.54
2023-02-27T12:06:16.487Z,846.62
2023-02-27T12:07:16.477Z,846.60
2023-02-27T12:08:16.476Z,846.63
2023-02-27T12:09:16.447Z,846.58
2023-02-27T12:10:16.435Z,846.61
2023-02-27T12:11:16.469Z,846.59
2023-02-27T12:12:16.415Z,846.58
2023-02-27T12:13:16.412Z,846.61
2023-02-27T12:14:16.429Z,846.63
2023-02-27T12:15:16.380Z,846.60
2023-02-27T12:16:16.449Z,846.65
2023-02-27T12:17:16.410Z,846.59
2023-02-27T12:18:16.371Z,846.62
2023-02-27T12:19:16.338Z,846.56
2023-02-27T12:20:16.344Z,846.59
2023-02-27T12:21:16.342Z,846.60
2023-02-27T12:22:16.306Z,846.65
2023-02-27T12:23:16.386Z,846.58
2023-02-27T12:24:16.282Z,846.62
2023-02-27T12:25:16.274Z,846.59
2023-02-27T12:26:16.427Z,846.62
2023-02-27T12:27:16.258Z,846.68
2023-02-27T12:28:16.242Z,846.59
2023-02-27T12:29:16.274Z,846.56
2023-02-27T12:30:16.220Z,846.60
2023-02-27T12:31:16.220Z,846.62
2023-02-27T12:32:16.210Z,846.60
2023-02-27T12:33:16.182Z,846.63
2023-02-27T12:34:16.988Z,846.60